Phaethon — SVAM2 — position and weather

sailwx.info

Track history (hours):
 
Tides and Currents Weather Stations Pressure Air Temp Water Temp Dewpoint Dewpoint Depression Visibility Wind Speed Wind Dir Waves Ship Positions

Phaethon

Last reported at 2017-Jun-13 15:33 UTC. Time now 2017-Jul-22 20:31 UTC.
Position S 33°45' E 018°15'.
Warning: this ship's position is 39 days out of date.

Length 274 m; draft 9.5 m.

Type: Tanker. MMSI: 240836000.

Date/timePositionNaut miles runAvg speedWind from/ knotsBaromVisibWave heightAir tempDewpointWater temp
2017-Jun-13 15:33S 33°45' E 018°15'112.0
2017-Jun-13 15:30S 33°46' E 018°16'611.7
2017-Jun-13 15:00S 33°50' E 018°20'5 5.2
2017-Jun-13 14:00S 33°50' E 018°26'0 0.2
2017-Jun-13 13:30S 33°50' E 018°27'0 0.0
2017-Jun-13 13:00S 33°50' E 018°27'0 0.0
2017-Jun-13 12:30S 33°50' E 018°27'0 0.0
2017-Jun-13 12:00S 33°50' E 018°27'0 0.1
2017-Jun-13 11:30S 33°50' E 018°27'0 0.1
2017-Jun-13 11:00S 33°50' E 018°27'0 0.0
2017-Jun-13 10:30S 33°50' E 018°27'0 0.3
2017-Jun-13 10:00S 33°50' E 018°26'1 2.0
2017-Jun-13 09:30S 33°51' E 018°26'3 5.8
2017-Jun-13 09:00S 33°52' E 018°23'5 9.3
2017-Jun-13 08:30S 33°55' E 018°19'4 8.6
2017-Jun-13 08:00S 33°58' E 018°15'17 6.9
2017-Jun-13 05:34S 34°10' E 018°01'1 8.7
2017-Jun-13 05:29S 34°11' E 017°60'  
Track history (hours):
 
Tides and Currents Weather Stations Pressure Air Temp Water Temp Dewpoint Dewpoint Depression Visibility Wind Speed Wind Dir Waves Ship Positions

Phaethon

Last reported at 2017-Jun-13 15:33 UTC. Time now 2017-Jul-22 20:31 UTC.
Position S 33°45' E 018°15'.
Warning: this ship's position is 39 days out of date.

Length 274 m; draft 9.5 m.

Type: Tanker. MMSI: 240836000.

Date/timePositionNaut miles runAvg speedWind from/ knotsBaromVisibWave heightAir tempDewpointWater temp
2017-Jun-13 15:33S 33°45' E 018°15'112.0
2017-Jun-13 15:30S 33°46' E 018°16'611.7
2017-Jun-13 15:00S 33°50' E 018°20'5 5.2
2017-Jun-13 14:00S 33°50' E 018°26'0 0.2
2017-Jun-13 13:30S 33°50' E 018°27'0 0.0
2017-Jun-13 13:00S 33°50' E 018°27'0 0.0
2017-Jun-13 12:30S 33°50' E 018°27'0 0.0
2017-Jun-13 12:00S 33°50' E 018°27'0 0.1
2017-Jun-13 11:30S 33°50' E 018°27'0 0.1
2017-Jun-13 11:00S 33°50' E 018°27'0 0.0
2017-Jun-13 10:30S 33°50' E 018°27'0 0.3
2017-Jun-13 10:00S 33°50' E 018°26'1 2.0
2017-Jun-13 09:30S 33°51' E 018°26'3 5.8
2017-Jun-13 09:00S 33°52' E 018°23'5 9.3
2017-Jun-13 08:30S 33°55' E 018°19'4 8.6
2017-Jun-13 08:00S 33°58' E 018°15'17 6.9
2017-Jun-13 05:34S 34°10' E 018°01'1 8.7
2017-Jun-13 05:29S 34°11' E 017°60'  

Dump ship's entire track history